createdAt,value
2024-02-02T00:01:51.645Z,8.47
2024-02-02T00:04:19.467Z,8.47
2024-02-02T00:06:49.067Z,8.46
2024-02-02T00:09:17.146Z,8.45
2024-02-02T00:11:45.012Z,8.46
2024-02-02T00:14:12.801Z,8.47
2024-02-02T00:16:40.653Z,8.47
2024-02-02T00:19:08.693Z,8.45
2024-02-02T00:21:36.637Z,8.45
2024-02-02T00:24:06.183Z,8.46
2024-02-02T00:26:34.028Z,8.45
2024-02-02T00:29:01.847Z,8.45
2024-02-02T00:31:29.660Z,8.43
2024-02-02T00:33:57.614Z,8.42
2024-02-02T00:36:25.907Z,8.42
2024-02-02T00:38:53.809Z,8.42
2024-02-02T00:41:23.041Z,8.42
2024-02-02T00:43:50.879Z,8.42
2024-02-02T00:46:18.980Z,8.37
2024-02-02T00:48:46.976Z,8.41
2024-02-02T00:51:14.950Z,8.39
2024-02-02T00:53:42.847Z,8.38
2024-02-02T00:56:10.835Z,8.37
2024-02-02T00:58:40.018Z,8.36
2024-02-02T01:01:08.090Z,8.36
2024-02-02T01:03:38.677Z,8.37
2024-02-02T01:06:06.932Z,8.35
2024-02-02T01:08:35.054Z,8.36
2024-02-02T01:11:03.944Z,8.36
2024-02-02T01:13:32.089Z,8.35
2024-02-02T01:16:01.270Z,8.35
2024-02-02T01:18:29.378Z,8.34
2024-02-02T01:20:57.286Z,8.33
2024-02-02T01:23:25.697Z,8.33
2024-02-02T01:25:53.537Z,8.33
2024-02-02T01:28:21.390Z,8.31
2024-02-02T01:30:49.209Z,8.30
2024-02-02T01:33:18.603Z,8.31
2024-02-02T01:35:46.489Z,8.29
2024-02-02T01:38:14.329Z,8.30
2024-02-02T01:40:42.442Z,8.29
2024-02-02T01:43:10.317Z,8.30
2024-02-02T01:45:39.341Z,8.24
2024-02-02T01:48:09.564Z,8.29
2024-02-02T01:50:38.885Z,8.28
2024-02-02T01:53:07.158Z,8.29
2024-02-02T01:55:35.078Z,8.28
2024-02-02T01:58:03.091Z,8.29
2024-02-02T02:00:31.150Z,8.29
2024-02-02T02:02:59.397Z,8.28
2024-02-02T02:05:27.387Z,8.29
2024-02-02T02:07:56.621Z,8.29
2024-02-02T02:10:25.579Z,8.28
2024-02-02T02:12:53.426Z,8.31
2024-02-02T02:15:21.515Z,8.30
2024-02-02T02:17:52.962Z,8.31
2024-02-02T02:20:23.143Z,8.29
2024-02-02T02:22:52.625Z,8.29
2024-02-02T02:25:20.886Z,8.29
2024-02-02T02:27:48.973Z,8.29
2024-02-02T02:30:16.981Z,8.29
2024-02-02T02:32:44.962Z,8.28
2024-02-02T02:35:13.179Z,8.29
2024-02-02T02:37:41.332Z,8.29
2024-02-02T02:40:12.138Z,8.29
2024-02-02T02:42:40.107Z,8.27
2024-02-02T02:45:08.440Z,8.28
2024-02-02T02:47:36.680Z,8.28
2024-02-02T02:50:05.389Z,8.27
2024-02-02T02:52:33.433Z,8.26
2024-02-02T02:55:01.272Z,8.26
2024-02-02T02:57:30.583Z,8.26
2024-02-02T02:59:58.488Z,8.26
2024-02-02T03:02:26.384Z,8.24
2024-02-02T03:04:54.236Z,8.23
2024-02-02T03:07:22.150Z,8.22
2024-02-02T03:09:50.001Z,8.23
2024-02-02T03:12:17.909Z,8.21
2024-02-02T03:14:47.554Z,8.21
2024-02-02T03:17:15.394Z,8.20
2024-02-02T03:19:43.282Z,8.21
2024-02-02T03:22:11.225Z,8.20
2024-02-02T03:24:39.105Z,8.19
2024-02-02T03:27:07.488Z,8.10
2024-02-02T03:29:35.355Z,8.18
2024-02-02T03:32:04.803Z,8.18
2024-02-02T03:34:32.737Z,8.18
2024-02-02T03:37:00.610Z,8.16
2024-02-02T03:39:28.453Z,8.16
2024-02-02T03:41:56.402Z,8.14
2024-02-02T03:44:24.275Z,8.14
2024-02-02T03:46:52.109Z,8.16
2024-02-02T03:49:21.418Z,8.16
2024-02-02T03:51:49.354Z,8.14
2024-02-02T03:54:17.258Z,8.14
2024-02-02T03:56:46.474Z,8.13
2024-02-02T03:59:14.332Z,8.12
2024-02-02T04:01:42.147Z,8.11
2024-02-02T04:04:10.060Z,8.11
2024-02-02T04:06:39.334Z,8.06
2024-02-02T04:09:09.524Z,8.08
2024-02-02T04:11:37.634Z,8.07
2024-02-02T04:14:06.871Z,8.07
2024-02-02T04:16:34.743Z,8.04
2024-02-02T04:19:02.905Z,8.05
2024-02-02T04:21:31.235Z,8.05
2024-02-02T04:24:00.506Z,8.06
2024-02-02T04:26:28.404Z,8.06
2024-02-02T04:28:56.198Z,8.06
2024-02-02T04:31:24.007Z,8.05
2024-02-02T04:33:52.107Z,8.04
2024-02-02T04:36:20.060Z,8.04
2024-02-02T04:38:47.911Z,8.02
2024-02-02T04:41:17.128Z,8.03
2024-02-02T04:43:44.974Z,8.04
2024-02-02T04:46:12.771Z,8.04
2024-02-02T04:48:40.712Z,8.03
2024-02-02T04:51:08.603Z,8.04
2024-02-02T04:53:36.460Z,8.02
2024-02-02T04:56:04.382Z,8.01
2024-02-02T04:58:33.549Z,8.00
2024-02-02T05:01:01.346Z,8.00
2024-02-02T05:03:31.805Z,8.01
2024-02-02T05:05:59.920Z,8.01
2024-02-02T05:08:27.831Z,8.00
2024-02-02T05:10:55.772Z,7.99
2024-02-02T05:13:23.565Z,7.96
2024-02-02T05:15:52.893Z,7.98
2024-02-02T05:18:21.073Z,7.96
2024-02-02T05:20:50.481Z,7.98
2024-02-02T05:23:18.371Z,7.97
2024-02-02T05:25:46.375Z,7.96
2024-02-02T05:28:14.422Z,7.95
2024-02-02T05:30:42.244Z,7.93
2024-02-02T05:33:11.646Z,7.96
2024-02-02T05:35:39.589Z,7.94
2024-02-02T05:38:07.392Z,7.92
2024-02-02T05:40:35.203Z,7.91
2024-02-02T05:43:03.112Z,7.91
2024-02-02T05:45:31.011Z,7.92
2024-02-02T05:47:58.985Z,7.91
2024-02-02T05:50:28.201Z,7.91
2024-02-02T05:52:56.012Z,7.90
2024-02-02T05:55:23.793Z,7.90
2024-02-02T05:57:51.626Z,7.89
2024-02-02T06:00:20.238Z,7.90
2024-02-02T06:02:48.845Z,7.88
2024-02-02T06:05:16.679Z,7.89
2024-02-02T06:07:45.899Z,7.88
2024-02-02T06:10:13.756Z,7.87
2024-02-02T06:12:41.710Z,7.87
2024-02-02T06:15:10.637Z,7.87
2024-02-02T06:17:38.766Z,7.88
2024-02-02T06:20:08.003Z,7.86
2024-02-02T06:22:36.665Z,7.87
2024-02-02T06:25:07.668Z,7.86
2024-02-02T06:27:35.750Z,7.86
2024-02-02T06:30:04.954Z,7.86
2024-02-02T06:32:33.280Z,7.86
2024-02-02T06:35:01.374Z,7.84
2024-02-02T06:37:29.379Z,7.86
2024-02-02T06:39:58.867Z,7.85
2024-02-02T06:42:28.264Z,7.81
2024-02-02T06:44:58.285Z,7.80
2024-02-02T06:47:26.306Z,7.80
2024-02-02T06:49:54.159Z,7.80
2024-02-02T06:52:22.885Z,7.79
2024-02-02T06:54:50.908Z,7.79
2024-02-02T06:57:19.656Z,7.78
2024-02-02T06:59:50.528Z,7.78
2024-02-02T07:02:22.190Z,7.78
2024-02-02T07:04:50.352Z,7.75
2024-02-02T07:07:19.219Z,7.75
2024-02-02T07:09:52.506Z,7.77
2024-02-02T07:13:08.645Z,7.75
2024-02-02T07:15:42.014Z,7.67
2024-02-02T07:18:28.592Z,7.71
2024-02-02T07:21:05.758Z,7.73
2024-02-02T07:23:38.921Z,7.75
2024-02-02T07:26:09.556Z,7.76
2024-02-02T07:28:39.622Z,7.77
2024-02-02T07:31:10.406Z,7.77
2024-02-02T07:33:42.128Z,7.80
2024-02-02T07:36:12.768Z,7.78
2024-02-02T07:38:50.168Z,7.78
2024-02-02T07:41:19.528Z,7.79
2024-02-02T07:43:49.059Z,7.78
2024-02-02T07:46:18.909Z,7.79
2024-02-02T07:48:49.322Z,7.78
2024-02-02T07:51:19.143Z,7.77
2024-02-02T07:53:48.136Z,7.76
2024-02-02T07:56:16.667Z,7.77
2024-02-02T07:58:44.564Z,7.77
2024-02-02T08:01:12.977Z,7.71
2024-02-02T08:03:42.409Z,7.78
2024-02-02T08:06:10.569Z,7.78
2024-02-02T08:08:38.693Z,7.77
2024-02-02T08:11:06.757Z,7.76
2024-02-02T08:13:34.625Z,7.75
2024-02-02T08:16:02.472Z,7.77
2024-02-02T08:18:31.006Z,7.76
2024-02-02T08:21:02.059Z,7.76
2024-02-02T08:23:30.020Z,7.76
2024-02-02T08:25:58.085Z,7.71
2024-02-02T08:28:25.933Z,7.68
2024-02-02T08:30:54.217Z,7.75
2024-02-02T08:33:22.365Z,7.68
2024-02-02T08:35:50.274Z,7.75
2024-02-02T08:38:19.641Z,7.76
2024-02-02T08:40:49.318Z,7.75
2024-02-02T08:43:19.002Z,7.76
2024-02-02T08:46:09.124Z,7.69
2024-02-02T08:48:39.536Z,7.83
2024-02-02T08:51:50.726Z,8.03
2024-02-02T08:54:35.562Z,8.22
2024-02-02T08:57:30.468Z,8.41
2024-02-02T09:00:05.881Z,8.57
2024-02-02T09:02:57.869Z,8.73
2024-02-02T09:05:28.993Z,8.92
2024-02-02T09:08:11.298Z,9.06
2024-02-02T09:11:24.371Z,9.16
2024-02-02T09:14:08.056Z,9.29
2024-02-02T09:16:48.036Z,9.39
2024-02-02T09:19:28.073Z,9.47
2024-02-02T09:21:58.658Z,9.42
2024-02-02T09:24:35.810Z,9.30
2024-02-02T09:27:07.792Z,9.13
2024-02-02T09:29:36.761Z,8.99
2024-02-02T09:32:05.877Z,8.86
2024-02-02T09:34:34.073Z,8.77
2024-02-02T09:37:01.934Z,8.72
2024-02-02T09:39:51.563Z,8.72
2024-02-02T09:42:36.899Z,8.63
2024-02-02T09:45:09.320Z,8.61
2024-02-02T09:47:55.819Z,8.66
2024-02-02T09:50:33.013Z,8.79
2024-02-02T09:53:29.209Z,8.94
2024-02-02T09:56:07.037Z,9.10
2024-02-02T09:58:46.061Z,9.25
2024-02-02T10:01:33.258Z,9.42
2024-02-02T10:04:14.876Z,9.56
2024-02-02T10:06:49.114Z,9.71
2024-02-02T10:09:39.373Z,9.83
2024-02-02T10:12:19.303Z,9.87
2024-02-02T10:15:21.525Z,9.93
2024-02-02T10:18:06.589Z,9.97
2024-02-02T10:20:39.925Z,9.95
2024-02-02T10:23:27.546Z,9.95
2024-02-02T10:26:08.622Z,9.86
2024-02-02T10:28:49.595Z,9.68
2024-02-02T10:31:38.409Z,9.51
2024-02-02T10:34:23.336Z,9.32
2024-02-02T10:37:04.541Z,9.20
2024-02-02T10:39:47.428Z,9.12
2024-02-02T10:42:26.786Z,8.94
2024-02-02T10:45:06.031Z,8.95
2024-02-02T10:47:50.280Z,8.91
2024-02-02T10:50:23.365Z,8.84
2024-02-02T10:53:04.938Z,8.80
2024-02-02T10:55:46.930Z,8.91
2024-02-02T10:58:25.993Z,9.08
2024-02-02T11:01:00.329Z,9.23
2024-02-02T11:03:38.300Z,9.37
2024-02-02T11:06:19.737Z,9.52
2024-02-02T11:08:55.266Z,9.68
2024-02-02T11:11:27.995Z,9.82
2024-02-02T11:14:06.189Z,9.93
2024-02-02T11:16:51.087Z,10.05
2024-02-02T11:19:32.048Z,10.01
2024-02-02T11:22:20.404Z,9.87
2024-02-02T11:24:59.410Z,9.72
2024-02-02T11:27:33.602Z,9.56
2024-02-02T11:30:05.162Z,9.43
2024-02-02T11:33:04.440Z,9.32
2024-02-02T11:35:43.823Z,9.23
2024-02-02T11:38:22.789Z,9.17
2024-02-02T11:40:52.498Z,9.13
2024-02-02T11:43:22.922Z,9.09
2024-02-02T11:45:54.482Z,9.03
2024-02-02T11:48:30.632Z,8.99
2024-02-02T11:51:01.499Z,8.93
2024-02-02T11:53:39.220Z,8.92
2024-02-02T11:56:12.935Z,8.90
2024-02-02T11:58:45.480Z,8.88
2024-02-02T12:01:28.803Z,8.85
2024-02-02T12:04:25.672Z,8.84
2024-02-02T12:07:04.275Z,8.90
2024-02-02T12:09:36.164Z,9.08
2024-02-02T12:12:13.108Z,9.27
2024-02-02T12:14:46.687Z,9.50
2024-02-02T12:17:16.215Z,9.64
2024-02-02T12:19:44.990Z,9.82
2024-02-02T12:22:14.853Z,9.99
2024-02-02T12:24:43.176Z,10.13
2024-02-02T12:27:11.046Z,10.24
2024-02-02T12:29:39.363Z,10.28
2024-02-02T12:32:08.000Z,10.23
2024-02-02T12:34:36.017Z,10.11
2024-02-02T12:37:05.304Z,9.95
2024-02-02T12:42:07.809Z,9.67
2024-02-02T12:44:36.404Z,9.56
2024-02-02T12:47:07.789Z,9.44
2024-02-02T12:49:38.207Z,9.39
2024-02-02T12:52:07.567Z,9.35
2024-02-02T12:54:37.290Z,9.30
2024-02-02T12:57:07.361Z,9.26
2024-02-02T12:59:35.384Z,9.23
2024-02-02T13:02:03.226Z,9.19
2024-02-02T13:04:32.222Z,9.07
2024-02-02T13:07:01.138Z,9.14
2024-02-02T13:09:32.974Z,9.13
2024-02-02T13:12:03.048Z,9.09
2024-02-02T13:14:33.088Z,9.11
2024-02-02T13:17:10.738Z,9.11
2024-02-02T13:19:40.406Z,9.09
2024-02-02T13:22:19.221Z,9.07
2024-02-02T13:24:50.109Z,9.06
2024-02-02T13:27:20.177Z,9.05
2024-02-02T13:29:53.278Z,9.07
2024-02-02T13:32:22.661Z,9.07
2024-02-02T13:34:50.900Z,9.03
2024-02-02T13:37:30.507Z,9.02
2024-02-02T13:40:00.164Z,9.15
2024-02-02T13:42:30.702Z,9.31
2024-02-02T13:45:10.443Z,9.47
2024-02-02T13:47:39.041Z,9.61
2024-02-02T13:50:16.904Z,9.77
2024-02-02T13:52:50.164Z,9.96
2024-02-02T13:55:19.902Z,10.01
2024-02-02T13:57:49.958Z,9.97
2024-02-02T14:00:19.286Z,9.89
2024-02-02T14:02:47.193Z,9.77
2024-02-02T14:05:15.700Z,9.69
2024-02-02T14:07:43.632Z,9.59
2024-02-02T14:10:13.014Z,9.54
2024-02-02T14:12:41.426Z,9.50
2024-02-02T14:15:09.925Z,9.51
2024-02-02T14:17:37.897Z,9.50
2024-02-02T14:20:07.139Z,9.46
2024-02-02T14:22:35.936Z,9.45
2024-02-02T14:25:05.283Z,9.44
2024-02-02T14:27:35.045Z,9.41
2024-02-02T14:30:05.528Z,9.39
2024-02-02T14:32:35.080Z,9.37
2024-02-02T14:35:05.268Z,9.35
2024-02-02T14:37:33.981Z,9.32
2024-02-02T14:40:02.321Z,9.31
2024-02-02T14:42:30.408Z,9.29
2024-02-02T14:44:59.960Z,9.26
2024-02-02T14:47:28.754Z,9.25
2024-02-02T14:49:58.047Z,9.25
2024-02-02T14:52:25.897Z,9.24
2024-02-02T14:54:53.706Z,9.23
2024-02-02T14:57:23.138Z,9.22
2024-02-02T14:59:53.928Z,9.22
2024-02-02T15:02:21.771Z,9.22
2024-02-02T15:04:50.354Z,9.20
2024-02-02T15:07:22.580Z,9.20
2024-02-02T15:09:51.981Z,9.21
2024-02-02T15:12:20.193Z,9.29
2024-02-02T15:14:48.973Z,9.46
2024-02-02T15:17:18.733Z,9.63
2024-02-02T15:19:46.690Z,9.82
2024-02-02T15:22:14.685Z,9.91
2024-02-02T15:24:43.944Z,10.05
2024-02-02T15:27:11.882Z,10.05
2024-02-02T15:29:42.092Z,10.00
2024-02-02T15:32:09.962Z,9.91
2024-02-02T15:34:37.964Z,9.88
2024-02-02T15:37:05.930Z,9.82
2024-02-02T15:39:38.141Z,9.76
2024-02-02T15:42:08.727Z,9.71
2024-02-02T15:44:40.465Z,9.67
2024-02-02T15:47:08.283Z,9.63
2024-02-02T15:49:36.234Z,9.61
2024-02-02T15:52:04.231Z,9.61
2024-02-02T15:54:32.272Z,9.63
2024-02-02T15:57:00.596Z,9.64
2024-02-02T15:59:29.862Z,9.61
2024-02-02T16:01:57.815Z,9.59
2024-02-02T16:04:25.688Z,9.60
2024-02-02T16:07:03.234Z,9.55
2024-02-02T16:09:31.151Z,9.59
2024-02-02T16:11:59.039Z,9.59
2024-02-02T16:14:26.914Z,9.58
2024-02-02T16:16:56.075Z,9.58
2024-02-02T16:19:24.982Z,9.54
2024-02-02T16:21:52.852Z,9.54
2024-02-02T16:24:20.723Z,9.55
2024-02-02T16:26:48.564Z,9.55
2024-02-02T16:29:16.431Z,9.57
2024-02-02T16:31:45.314Z,9.55
2024-02-02T16:34:15.168Z,9.54
2024-02-02T16:36:44.267Z,9.54
2024-02-02T16:39:13.631Z,9.53
2024-02-02T16:41:41.935Z,9.52
2024-02-02T16:44:10.160Z,9.52
2024-02-02T16:46:41.180Z,9.52
2024-02-02T16:49:09.603Z,9.52
2024-02-02T16:51:39.224Z,9.53
2024-02-02T16:54:08.515Z,9.53
2024-02-02T16:56:36.563Z,9.53
2024-02-02T16:59:04.667Z,9.52
2024-02-02T17:01:33.965Z,9.52
2024-02-02T17:04:02.508Z,9.62
2024-02-02T17:06:30.791Z,9.75
2024-02-02T17:09:00.793Z,9.89
2024-02-02T17:11:28.984Z,10.09
2024-02-02T17:13:56.774Z,10.28
2024-02-02T17:16:24.718Z,10.48
2024-02-02T17:18:54.407Z,10.65
2024-02-02T17:21:22.589Z,10.73
2024-02-02T17:23:51.094Z,10.69
2024-02-02T17:26:20.659Z,10.59
2024-02-02T17:28:50.358Z,10.47
2024-02-02T17:31:19.464Z,10.36
2024-02-02T17:33:47.366Z,10.25
2024-02-02T17:36:17.122Z,10.18
2024-02-02T17:38:45.683Z,10.10
2024-02-02T17:41:15.630Z,10.06
2024-02-02T17:43:46.736Z,10.03
2024-02-02T17:46:15.337Z,9.98
2024-02-02T17:48:43.656Z,9.95
2024-02-02T17:51:11.828Z,9.92
2024-02-02T17:53:41.073Z,9.87
2024-02-02T17:56:09.865Z,9.87
2024-02-02T17:58:37.917Z,9.83
2024-02-02T18:01:07.665Z,9.82
2024-02-02T18:03:36.142Z,9.79
2024-02-02T18:06:05.594Z,9.77
2024-02-02T18:08:33.673Z,9.77
2024-02-02T18:11:03.760Z,9.73
2024-02-02T18:13:32.511Z,9.74
2024-02-02T18:16:00.442Z,9.73
2024-02-02T18:18:29.765Z,9.72
2024-02-02T18:20:57.639Z,9.71
2024-02-02T18:23:25.838Z,9.70
2024-02-02T18:25:53.760Z,9.69
2024-02-02T18:28:27.273Z,9.68
2024-02-02T18:30:55.408Z,9.68
2024-02-02T18:33:23.597Z,9.68
2024-02-02T18:35:52.880Z,9.68
2024-02-02T18:38:20.735Z,9.68
2024-02-02T18:40:51.181Z,9.68
2024-02-02T18:43:19.503Z,9.70
2024-02-02T18:45:47.429Z,9.69
2024-02-02T18:48:15.949Z,9.68
2024-02-02T18:50:44.393Z,9.69
2024-02-02T18:53:13.538Z,9.69
2024-02-02T18:55:41.381Z,9.69
2024-02-02T18:58:09.202Z,9.69
2024-02-02T19:00:37.124Z,9.68
2024-02-02T19:03:05.861Z,9.69
2024-02-02T19:05:33.759Z,9.69
2024-02-02T19:08:01.817Z,9.69
2024-02-02T19:10:30.974Z,9.70
2024-02-02T19:12:58.793Z,9.70
2024-02-02T19:15:28.489Z,9.70
2024-02-02T19:17:56.369Z,9.68
2024-02-02T19:20:26.004Z,9.69
2024-02-02T19:22:54.571Z,9.67
2024-02-02T19:25:22.536Z,9.69
2024-02-02T19:27:52.072Z,9.68
2024-02-02T19:30:20.028Z,9.69
2024-02-02T19:32:48.038Z,9.70
2024-02-02T19:35:16.161Z,9.69
2024-02-02T19:37:44.029Z,9.70
2024-02-02T19:40:12.124Z,9.74
2024-02-02T19:42:40.064Z,9.78
2024-02-02T19:45:10.016Z,9.79
2024-02-02T19:47:37.937Z,9.81
2024-02-02T19:50:06.784Z,9.81
2024-02-02T19:52:34.683Z,9.82
2024-02-02T19:55:06.006Z,9.82
2024-02-02T19:57:34.131Z,9.83
2024-02-02T20:00:02.102Z,9.84
2024-02-02T20:02:34.009Z,9.82
2024-02-02T20:05:01.918Z,9.82
2024-02-02T20:07:29.861Z,9.81
2024-02-02T20:09:57.942Z,9.83
2024-02-02T20:12:25.825Z,9.87
2024-02-02T20:14:53.908Z,9.91
2024-02-02T20:17:21.725Z,9.92
2024-02-02T20:19:50.979Z,9.95
2024-02-02T20:22:18.956Z,9.95
2024-02-02T20:24:46.936Z,9.95
2024-02-02T20:27:15.875Z,9.94
2024-02-02T20:29:43.866Z,9.93
2024-02-02T20:32:12.342Z,9.91
2024-02-02T20:34:40.720Z,9.93
2024-02-02T20:37:10.049Z,9.92
2024-02-02T20:39:37.898Z,9.92
2024-02-02T20:42:06.328Z,9.90
2024-02-02T20:44:34.207Z,9.91
2024-02-02T20:47:03.718Z,9.91
2024-02-02T20:49:31.782Z,9.90
2024-02-02T20:51:59.749Z,9.90
2024-02-02T20:54:29.121Z,9.88
2024-02-02T20:56:56.991Z,9.89
2024-02-02T20:59:24.795Z,9.89
2024-02-02T21:01:52.859Z,9.89
2024-02-02T21:04:20.834Z,9.88
2024-02-02T21:06:49.023Z,9.88
2024-02-02T21:09:16.986Z,9.87
2024-02-02T21:11:47.126Z,9.88
2024-02-02T21:14:14.991Z,9.88
2024-02-02T21:16:43.003Z,9.86
2024-02-02T21:19:11.028Z,9.86
2024-02-02T21:21:38.970Z,9.87
2024-02-02T21:24:07.422Z,9.87
2024-02-02T21:26:35.295Z,9.87
2024-02-02T21:29:04.503Z,9.87
2024-02-02T21:31:32.322Z,9.87
2024-02-02T21:34:00.373Z,9.89
2024-02-02T21:36:28.819Z,9.88
2024-02-02T21:38:57.014Z,9.89
2024-02-02T21:41:25.769Z,9.88
2024-02-02T21:43:54.418Z,9.86
2024-02-02T21:46:23.796Z,9.88
2024-02-02T21:48:51.993Z,9.87
2024-02-02T21:51:19.970Z,9.88
2024-02-02T21:53:47.857Z,9.88
2024-02-02T21:56:15.699Z,9.88
2024-02-02T21:58:43.797Z,9.87
2024-02-02T22:01:11.667Z,9.87
2024-02-02T22:03:40.913Z,9.88
2024-02-02T22:06:09.276Z,9.86
2024-02-02T22:08:37.487Z,9.86
2024-02-02T22:11:05.633Z,9.87
2024-02-02T22:13:33.940Z,9.86
2024-02-02T22:16:01.947Z,9.87
2024-02-02T22:18:29.880Z,9.86
2024-02-02T22:20:59.136Z,9.87
2024-02-02T22:23:26.958Z,9.86
2024-02-02T22:25:54.958Z,9.87
2024-02-02T22:28:22.867Z,9.87
2024-02-02T22:30:50.865Z,9.87
2024-02-02T22:33:19.110Z,9.86
2024-02-02T22:35:47.026Z,9.86
2024-02-02T22:38:16.213Z,9.77
2024-02-02T22:40:44.038Z,9.86
2024-02-02T22:43:11.978Z,9.86
2024-02-02T22:45:38.960Z,9.87
2024-02-02T22:48:07.434Z,9.87
2024-02-02T22:50:35.406Z,9.87
2024-02-02T22:53:03.338Z,9.87
2024-02-02T22:55:32.708Z,9.87
2024-02-02T22:58:00.531Z,9.87
2024-02-02T23:00:28.423Z,9.87
2024-02-02T23:02:56.253Z,9.86
2024-02-02T23:05:24.096Z,9.88
2024-02-02T23:07:51.924Z,9.87
2024-02-02T23:10:19.810Z,9.87
2024-02-02T23:12:49.015Z,9.87
2024-02-02T23:15:16.912Z,9.86
2024-02-02T23:17:44.791Z,9.85
2024-02-02T23:20:13.073Z,9.85
2024-02-02T23:22:40.951Z,9.84
2024-02-02T23:25:09.125Z,9.85
2024-02-02T23:27:37.903Z,9.85
2024-02-02T23:30:09.041Z,9.85
2024-02-02T23:32:36.952Z,9.86
2024-02-02T23:35:05.486Z,9.86
2024-02-02T23:37:33.370Z,9.86
2024-02-02T23:40:01.568Z,9.84
2024-02-02T23:42:29.422Z,9.85
2024-02-02T23:44:57.317Z,9.85
2024-02-02T23:47:26.548Z,9.86
2024-02-02T23:49:54.448Z,9.87
2024-02-02T23:52:22.280Z,9.86
2024-02-02T23:54:50.753Z,9.84
2024-02-02T23:57:21.887Z,9.86
2024-02-02T23:59:49.913Z,9.85
